Time;durP1;ratioP1;P1;durP2;ratioP2;P2;SDS_P1;SDS_P2;PMS_P1;PMS_P2;Temp;Humidity;BMP_temperature;BMP_pressure;BME280_temperature;BME280_humidity;BME280_pressure;Samples;Min_cycle;Max_cycle;Signal;HPM_P1;HPM_P2
2023/05/05 00:00:08;;;;;;;15.20;10.75;;;;;;;19.53;58.04;101585.44;4984210;28;20019;-81
2023/05/05 00:02:40;;;;;;;12.93;10.10;;;;;;;19.88;56.97;101566.47;4966073;28;20043;-81
2023/05/05 00:05:12;;;;;;;12.63;7.43;;;;;;;20.08;56.35;101569.69;4968832;28;20220;-81
2023/05/05 00:07:37;;;;;;;10.98;6.50;;;;;;;19.94;56.32;101548.75;4966494;28;20031;-82
2023/05/05 00:10:05;;;;;;;8.93;5.97;;;;;;;19.85;56.01;101538.28;4962230;28;20111;-81
2023/05/05 00:12:31;;;;;;;8.55;5.65;;;;;;;19.89;55.54;101536.44;4964186;28;20043;-80
2023/05/05 00:14:56;;;;;;;9.20;5.30;;;;;;;20.15;54.80;101529.00;4945772;28;20094;-81
2023/05/05 00:17:25;;;;;;;7.72;5.43;;;;;;;20.23;54.25;101524.47;4942039;28;20493;-80
2023/05/05 00:19:53;;;;;;;8.88;5.35;;;;;;;19.92;54.03;101513.47;4946514;28;20035;-80
2023/05/05 00:22:18;;;;;;;9.30;4.65;;;;;;;20.26;52.88;101501.44;4943258;28;20031;-79
2023/05/05 00:24:44;;;;;;;6.47;4.57;;;;;;;20.26;53.00;101511.16;4945677;28;20102;-79
2023/05/05 00:27:12;;;;;;;6.95;4.07;;;;;;;20.54;52.04;101506.31;4942004;28;20035;-79
2023/05/05 00:29:37;;;;;;;7.45;4.20;;;;;;;20.36;52.39;101496.91;4948440;28;20085;-81
2023/05/05 00:32:12;;;;;;;7.45;4.30;;;;;;;20.53;52.07;101489.56;4946114;28;20043;-79
2023/05/05 00:34:49;;;;;;;6.53;3.40;;;;;;;20.01;52.86;101492.16;4943843;28;20031;-80
2023/05/05 00:37:17;;;;;;;7.38;3.50;;;;;;;20.31;51.68;101490.78;4942839;28;20038;-80
2023/05/05 00:39:46;;;;;;;5.30;3.17;;;;;;;20.51;50.92;101472.81;4948999;28;20568;-80
2023/05/05 00:42:14;;;;;;;6.90;3.25;;;;;;;20.44;51.44;101479.09;4947355;28;20041;-79
2023/05/05 00:44:40;;;;;;;7.60;3.38;;;;;;;20.48;51.09;101477.28;4944953;28;20028;-79
2023/05/05 00:47:11;;;;;;;6.53;3.13;;;;;;;20.39;51.40;101475.66;4947706;28;20126;-80
2023/05/05 00:49:37;;;;;;;5.90;3.05;;;;;;;20.56;51.08;101492.13;4945834;28;20035;-81
2023/05/05 00:52:03;;;;;;;6.88;2.75;;;;;;;20.11;52.48;101499.06;4954314;28;20036;-79
2023/05/05 00:54:28;;;;;;;5.82;2.90;;;;;;;20.27;52.93;101504.97;4955633;28;20078;-80
2023/05/05 00:56:57;;;;;;;4.63;2.50;;;;;;;20.51;52.00;101501.06;4953041;28;20035;-81
2023/05/05 00:59:27;;;;;;;4.93;2.60;;;;;;;20.55;52.45;101511.56;4949006;28;20039;-81
2023/05/05 01:01:52;;;;;;;5.20;2.40;;;;;;;20.52;52.42;101513.41;4952645;28;20094;-81
2023/05/05 01:04:18;;;;;;;5.80;2.58;;;;;;;20.39;53.56;101517.16;4944048;28;20059;-82
2023/05/05 01:07:10;;;;;;;4.07;2.20;;;;;;;20.50;53.49;101515.19;4952674;28;20047;-80
2023/05/05 01:09:56;;;;;;;6.07;2.33;;;;;;;20.43;53.27;101509.13;4951522;28;20069;-80
2023/05/05 01:12:40;;;;;;;6.80;2.80;;;;;;;20.43;52.77;101519.72;4946717;28;20051;-80
2023/05/05 01:15:10;;;;;;;4.25;2.55;;;;;;;20.44;52.25;101516.19;4950723;28;20067;-80
2023/05/05 01:17:54;;;;;;;5.10;2.30;;;;;;;20.38;52.30;101526.00;4945079;28;20043;-79
2023/05/05 01:20:27;;;;;;;5.97;2.67;;;;;;;20.24;52.82;101526.22;4944724;28;20497;-79
2023/05/05 01:22:58;;;;;;;4.22;2.40;;;;;;;20.12;53.36;101521.13;4954577;28;20039;-80
2023/05/05 01:25:59;;;;;;;6.03;2.50;;;;;;;19.92;54.24;101509.94;4945242;28;20050;-81
2023/05/05 01:29:01;;;;;;;5.53;2.42;;;;;;;19.77;54.72;101525.16;4943764;28;20059;-82
2023/05/05 01:31:50;;;;;;;4.32;2.20;;;;;;;19.39;55.35;101541.47;4945176;28;20028;-81
2023/05/05 01:34:19;;;;;;;3.65;2.40;;;;;;;19.73;54.30;101541.09;4942448;28;20043;-79
2023/05/05 01:36:51;;;;;;;4.53;2.38;;;;;;;19.75;54.18;101545.47;4946623;28;20043;-79
2023/05/05 01:39:18;;;;;;;3.88;2.10;;;;;;;19.70;54.13;101538.50;4941657;28;20401;-82
2023/05/05 01:41:48;;;;;;;3.22;2.15;;;;;;;19.58;54.49;101543.94;4946650;28;20039;-80
2023/05/05 01:44:15;;;;;;;3.15;2.10;;;;;;;19.77;53.70;101542.78;4942382;28;20086;-81
2023/05/05 01:46:43;;;;;;;4.00;2.03;;;;;;;19.76;53.57;101544.56;4945934;28;20035;-79
2023/05/05 01:49:13;;;;;;;3.28;2.00;;;;;;;19.74;53.49;101545.50;4946211;28;20118;-80
2023/05/05 01:51:40;;;;;;;3.45;2.20;;;;;;;19.49;54.62;101552.00;4943413;28;20162;-78
2023/05/05 01:54:07;;;;;;;3.92;2.30;;;;;;;19.60;54.09;101550.06;4947060;28;20043;-80
2023/05/05 01:56:33;;;;;;;5.13;2.30;;;;;;;19.58;54.00;101550.09;4945973;28;20137;-81
2023/05/05 01:59:00;;;;;;;4.18;2.35;;;;;;;19.55;54.23;101549.25;4952333;28;20085;-80
2023/05/05 02:01:27;;;;;;;4.38;2.22;;;;;;;19.50;54.39;101545.81;4945758;28;20047;-81
2023/05/05 02:03:58;;;;;;;3.50;2.50;;;;;;;19.48;54.37;101555.53;4954883;28;20042;-82
2023/05/05 02:06:32;;;;;;;6.28;2.40;;;;;;;19.25;55.08;101548.72;4951089;28;20448;-79
2023/05/05 02:08:59;;;;;;;4.70;2.42;;;;;;;19.14;55.38;101561.19;4955506;28;20047;-80
2023/05/05 02:11:28;;;;;;;5.20;2.58;;;;;;;19.05;55.79;101555.97;4947543;28;20134;-82
2023/05/05 02:13:54;;;;;;;7.82;2.70;;;;;;;19.15;55.67;101554.97;4948797;28;20397;-80
2023/05/05 02:16:21;;;;;;;3.88;2.47;;;;;;;19.15;55.29;101548.84;4950426;28;20030;-78
2023/05/05 02:18:48;;;;;;;8.70;2.60;;;;;;;19.06;55.94;101547.16;4965589;28;20035;-79
2023/05/05 02:21:16;;;;;;;3.88;2.50;;;;;;;19.03;56.14;101549.81;4953535;28;20466;-81
2023/05/05 02:23:50;;;;;;;4.10;2.50;;;;;;;18.96;56.31;101561.38;4958181;28;20300;-79
2023/05/05 02:26:18;;;;;;;7.20;2.67;;;;;;;18.95;56.05;101564.91;4956139;28;20031;-80
2023/05/05 02:29:04;;;;;;;6.25;2.70;;;;;;;18.89;56.47;101562.31;4950442;28;20467;-79
2023/05/05 02:31:38;;;;;;;5.10;2.80;;;;;;;18.86;56.75;101565.84;4944514;28;20563;-79
2023/05/05 02:34:07;;;;;;;5.72;2.72;;;;;;;18.86;56.73;101570.25;4946650;28;20043;-79
2023/05/05 02:36:41;;;;;;;5.18;2.90;;;;;;;18.82;57.09;101571.19;4945646;28;20054;-80
2023/05/05 02:39:12;;;;;;;7.72;2.90;;;;;;;18.60;58.37;101574.00;4950410;28;20035;-78
2023/05/05 02:41:47;;;;;;;5.65;2.70;;;;;;;18.63;58.68;101565.19;4948989;28;20529;-80
2023/05/05 02:44:17;;;;;;;6.20;3.00;;;;;;;18.52;59.25;101572.31;4946911;28;20043;-81
2023/05/05 02:46:46;;;;;;;6.38;3.42;;;;;;;18.43;59.83;101570.59;4950988;28;20047;-79
2023/05/05 02:49:14;;;;;;;4.80;3.08;;;;;;;18.41;60.05;101574.16;4949054;28;20050;-79
2023/05/05 02:51:49;;;;;;;4.57;2.90;;;;;;;18.51;59.60;101578.47;4947929;28;20031;-80
2023/05/05 02:54:15;;;;;;;6.85;3.25;;;;;;;18.48;59.62;101583.78;4946010;28;20102;-80
2023/05/05 02:56:48;;;;;;;5.53;3.25;;;;;;;18.42;59.99;101579.41;4949482;28;20039;-82
2023/05/05 02:59:46;;;;;;;7.27;3.63;;;;;;;18.44;60.11;101585.56;4945580;28;20031;-81
2023/05/05 03:02:26;;;;;;;5.80;3.60;;;;;;;18.26;61.17;101588.34;4949596;28;20345;-81
2023/05/05 03:05:01;;;;;;;5.78;3.45;;;;;;;18.21;61.37;101591.03;4947028;28;20514;-80
2023/05/05 03:07:33;;;;;;;8.52;4.28;;;;;;;18.13;62.27;101595.47;4944200;28;20031;-80
2023/05/05 03:10:16;;;;;;;7.50;4.43;;;;;;;18.21;61.94;101575.19;4949792;28;20050;-80
2023/05/05 03:12:57;;;;;;;7.82;4.55;;;;;;;18.25;61.79;101579.53;4948915;28;20035;-81
2023/05/05 03:15:28;;;;;;;12.80;5.63;;;;;;;18.31;61.83;101581.25;4964663;28;20041;-79
2023/05/05 03:18:02;;;;;;;11.68;5.75;;;;;;;18.20;62.29;101581.34;4955531;28;20028;-81
2023/05/05 03:20:28;;;;;;;9.13;5.70;;;;;;;18.07;63.09;101565.59;4951877;28;20035;-80
2023/05/05 03:22:54;;;;;;;10.48;5.97;;;;;;;18.11;62.69;101567.34;4949807;28;20042;-81
2023/05/05 03:25:19;;;;;;;10.40;5.78;;;;;;;18.18;62.38;101563.75;4945742;28;20031;-80
2023/05/05 03:27:47;;;;;;;12.40;6.70;;;;;;;18.08;63.27;101570.00;4949982;28;20039;-80
2023/05/05 03:30:13;;;;;;;10.23;6.10;;;;;;;18.02;63.43;101567.38;4946425;28;20109;-82
2023/05/05 03:32:38;;;;;;;10.40;6.70;;;;;;;18.00;63.25;101567.38;4948956;28;20553;-80
2023/05/05 03:35:04;;;;;;;10.18;6.65;;;;;;;18.11;62.94;101573.47;4950654;28;20047;-80
2023/05/05 03:37:39;;;;;;;11.77;6.75;;;;;;;18.06;63.22;101582.31;4946993;28;20031;-80
2023/05/05 03:40:13;;;;;;;11.45;7.43;;;;;;;17.99;63.68;101581.47;4956752;28;20031;-78
2023/05/05 03:42:39;;;;;;;14.35;7.95;;;;;;;17.93;63.78;101575.38;4958351;28;20051;-78
2023/05/05 03:45:05;;;;;;;15.15;8.45;;;;;;;17.95;63.95;101570.94;4959032;28;20047;-78
2023/05/05 03:47:30;;;;;;;15.35;9.00;;;;;;;17.86;64.34;101573.66;4953994;28;20035;-77
2023/05/05 03:50:14;;;;;;;17.17;9.57;;;;;;;17.43;65.95;101579.97;4958661;28;20065;-78
2023/05/05 03:52:39;;;;;;;18.73;10.65;;;;;;;17.77;64.62;101571.91;4955423;28;20102;-79
2023/05/05 03:55:05;;;;;;;20.02;11.00;;;;;;;17.83;64.34;101571.88;4956986;28;20039;-79
2023/05/05 03:57:32;;;;;;;22.30;10.93;;;;;;;17.83;64.43;101577.16;4946114;28;20063;-80
2023/05/05 04:00:11;;;;;;;18.85;11.35;;;;;;;17.81;64.84;101582.44;4951980;28;20035;-80
2023/05/05 04:02:42;;;;;;;21.42;12.52;;;;;;;17.63;65.45;101586.91;4960626;28;20118;-80
2023/05/05 04:05:13;;;;;;;20.90;12.18;;;;;;;17.78;64.90;101603.56;4950047;28;20031;-80
2023/05/05 04:07:45;;;;;;;22.85;12.50;;;;;;;17.58;65.49;101602.72;4941998;28;20042;-79
2023/05/05 04:10:10;;;;;;;19.45;12.40;;;;;;;17.72;65.07;101606.25;4946075;28;20405;-80
2023/05/05 04:12:36;;;;;;;20.70;13.10;;;;;;;17.74;64.97;101611.50;4947379;28;20059;-79
2023/05/05 04:15:01;;;;;;;24.48;14.27;;;;;;;17.49;66.39;101610.69;4958381;28;20425;-78
2023/05/05 04:17:26;;;;;;;25.65;14.77;;;;;;;17.66;65.78;101610.66;4951290;28;20112;-79
2023/05/05 04:19:58;;;;;;;23.02;14.05;;;;;;;17.77;65.01;101611.47;4953075;28;20043;-80
2023/05/05 04:22:23;;;;;;;26.52;15.05;;;;;;;17.73;65.16;101618.53;4949920;28;20039;-78
2023/05/05 04:24:48;;;;;;;30.30;15.90;;;;;;;17.72;65.70;101616.78;4957721;28;20099;-78
2023/05/05 04:27:17;;;;;;;26.52;15.30;;;;;;;17.81;65.34;101613.22;4953983;28;20038;-81
2023/05/05 04:29:42;;;;;;;28.67;15.55;;;;;;;17.76;65.51;101623.78;4946912;28;20047;-79
2023/05/05 04:32:07;;;;;;;28.02;16.67;;;;;;;17.74;65.39;101619.44;4946449;28;20097;-80
2023/05/05 04:34:36;;;;;;;34.60;17.92;;;;;;;17.64;65.98;101621.19;4945046;28;20081;-79
2023/05/05 04:37:01;;;;;;;32.45;18.15;;;;;;;17.56;66.46;101620.34;4954772;28;20035;-80
2023/05/05 04:39:26;;;;;;;32.53;17.60;;;;;;;17.62;66.39;101623.00;4949438;28;20744;-79
2023/05/05 04:41:52;;;;;;;33.38;17.58;;;;;;;17.52;67.11;101623.84;4958544;28;20039;-79
2023/05/05 04:44:17;;;;;;;30.55;18.17;;;;;;;17.62;66.84;101623.00;4953074;28;20042;-80
2023/05/05 04:46:42;;;;;;;32.78;18.17;;;;;;;17.78;66.23;101624.66;4953250;28;20035;-79
2023/05/05 04:49:08;;;;;;;29.10;17.27;;;;;;;17.94;65.73;101622.81;4955565;28;20055;-81
2023/05/05 04:51:33;;;;;;;31.67;18.08;;;;;;;17.59;66.78;101617.69;4952877;28;20059;-79
2023/05/05 04:53:58;;;;;;;31.60;18.20;;;;;;;17.64;67.28;101612.41;4961396;28;20050;-77
2023/05/05 04:56:30;;;;;;;30.85;17.85;;;;;;;17.83;66.59;101622.00;4954218;28;20043;-80
2023/05/05 04:58:55;;;;;;;31.75;18.23;;;;;;;17.82;66.34;101621.13;4958423;28;20035;-80
2023/05/05 05:01:20;;;;;;;32.03;18.10;;;;;;;17.93;66.04;101614.94;4951513;28;20030;-80
2023/05/05 05:03:45;;;;;;;29.83;18.13;;;;;;;18.08;65.83;101623.66;4969459;28;20058;-80
2023/05/05 05:06:14;;;;;;;31.67;18.23;;;;;;;18.19;65.65;101624.44;4970299;28;20485;-80
2023/05/05 05:08:42;;;;;;;32.33;18.55;;;;;;;17.86;65.81;101624.66;4944250;28;20051;-79
2023/05/05 05:11:07;;;;;;;29.70;18.27;;;;;;;18.15;65.72;101630.66;4968269;28;20039;-80
2023/05/05 05:13:35;;;;;;;29.90;18.23;;;;;;;18.12;65.70;101637.69;4959085;28;20047;-82
2023/05/05 05:16:01;;;;;;;32.72;18.20;;;;;;;18.23;65.11;101638.53;4950096;28;20498;-81
2023/05/05 05:18:26;;;;;;;29.58;18.60;;;;;;;18.46;64.37;101647.16;4946708;28;20055;-81
2023/05/05 05:20:51;;;;;;;35.75;19.33;;;;;;;18.40;64.45;101648.97;4967973;28;20043;-80
2023/05/05 05:23:17;;;;;;;33.00;19.00;;;;;;;18.53;64.13;101654.16;4948177;28;20035;-80
2023/05/05 05:25:45;;;;;;;27.65;18.33;;;;;;;18.72;63.67;101659.34;4966151;28;20079;-79
2023/05/05 05:28:14;;;;;;;31.13;18.65;;;;;;;18.84;63.25;101651.31;4964720;28;20059;-80
2023/05/05 05:30:42;;;;;;;28.88;18.13;;;;;;;19.16;62.94;101661.59;4956389;28;20141;-79
2023/05/05 05:33:13;;;;;;;29.35;18.08;;;;;;;19.41;60.22;101657.81;4957364;28;20062;-78
2023/05/05 05:35:45;;;;;;;29.92;18.73;;;;;;;20.23;59.62;101649.78;4954708;28;20042;-79
2023/05/05 05:38:10;;;;;;;27.52;18.60;;;;;;;20.20;57.78;101648.94;4962516;28;20167;-82
2023/05/05 05:40:38;;;;;;;31.17;19.05;;;;;;;20.68;57.15;101647.34;4955487;28;20509;-80
2023/05/05 05:43:04;;;;;;;30.15;19.20;;;;;;;21.35;54.42;101635.59;4955660;28;20046;-81
2023/05/05 05:45:29;;;;;;;30.90;19.27;;;;;;;21.60;52.30;101639.53;4947963;28;20118;-80
2023/05/05 05:47:55;;;;;;;28.95;18.20;;;;;;;22.40;50.56;101644.03;4965326;28;20468;-80
2023/05/05 05:50:27;;;;;;;29.08;18.75;;;;;;;22.82;48.81;101650.13;4945718;28;20031;-82
2023/05/05 05:52:53;;;;;;;27.13;18.10;;;;;;;22.40;49.83;101654.66;4950235;28;20039;-81
2023/05/05 05:55:18;;;;;;;26.75;17.90;;;;;;;22.99;48.82;101666.56;4946840;28;20485;-82
2023/05/05 05:57:44;;;;;;;24.58;17.17;;;;;;;22.39;49.57;101676.81;4951497;28;20516;-81
2023/05/05 06:00:10;;;;;;;26.52;17.67;;;;;;;21.28;52.65;101676.44;4953612;28;20027;-80
2023/05/05 06:02:44;;;;;;;28.45;18.77;;;;;;;21.04;53.62;101678.56;4949630;28;20047;-82
2023/05/05 06:05:09;;;;;;;28.35;18.08;;;;;;;22.03;51.44;101683.81;4952773;28;20042;-81
2023/05/05 06:07:35;;;;;;;25.90;17.80;;;;;;;22.55;50.42;101683.56;4948042;28;20046;-82
2023/05/05 06:10:04;;;;;;;26.85;17.33;;;;;;;23.30;48.00;101688.78;4927819;28;20046;-82
2023/05/05 06:12:30;;;;;;;25.05;16.60;;;;;;;23.19;47.51;101688.19;4944656;28;20046;-82
2023/05/05 06:14:57;;;;;;;25.88;16.25;;;;;;;23.00;47.92;101687.78;4954481;28;20043;-81
2023/05/05 06:17:23;;;;;;;24.10;16.55;;;;;;;22.86;48.75;101686.41;4886846;28;20035;-80
2023/05/05 06:19:49;;;;;;;25.80;15.65;;;;;;;23.51;47.71;101686.50;4969832;28;20417;-80
2023/05/05 06:22:14;;;;;;;19.33;13.55;;;;;;;24.18;44.43;101694.34;4952809;28;20031;-82
2023/05/05 06:24:42;;;;;;;21.95;14.23;;;;;;;24.86;43.55;101691.31;4953506;28;20099;-81
2023/05/05 06:27:10;;;;;;;22.15;13.55;;;;;;;25.34;42.20;101693.28;4953891;28;20085;-81
2023/05/05 06:29:42;;;;;;;19.35;13.57;;;;;;;25.05;42.00;101695.16;4950328;28;20039;-80
2023/05/05 06:32:14;;;;;;;19.48;12.90;;;;;;;25.43;42.43;101687.63;4955457;28;20047;-80
2023/05/05 06:34:39;;;;;;;18.23;12.82;;;;;;;24.58;43.57;101691.31;4957610;28;20061;-83
2023/05/05 06:37:08;;;;;;;16.63;12.43;;;;;;;24.44;43.26;101684.69;4962772;28;20046;-82
2023/05/05 06:39:42;;;;;;;20.27;12.50;;;;;;;22.87;47.52;101691.66;4960329;28;20028;-81
2023/05/05 06:42:10;;;;;;;17.77;11.90;;;;;;;23.61;46.28;101690.66;4957318;28;20453;-81
2023/05/05 06:44:38;;;;;;;17.20;11.60;;;;;;;23.78;45.45;101694.63;4948184;28;20035;-81
2023/05/05 06:47:04;;;;;;;17.00;9.98;;;;;;;24.09;44.77;101699.91;4966849;28;20087;-80
2023/05/05 06:49:32;;;;;;;17.75;9.52;;;;;;;23.35;45.08;101709.97;4966459;28;20027;-79
2023/05/05 06:51:58;;;;;;;11.30;7.88;;;;;;;23.48;44.99;101707.91;4969610;28;20254;-81
2023/05/05 06:54:23;;;;;;;11.73;8.30;;;;;;;22.22;47.99;101709.97;4962682;28;20042;-80
2023/05/05 06:56:48;;;;;;;13.43;8.02;;;;;;;22.64;47.25;101702.81;4981074;28;20050;-82
2023/05/05 06:59:14;;;;;;;13.45;7.47;;;;;;;21.94;48.90;101697.28;4967844;28;20042;-84
2023/05/05 07:01:49;;;;;;;12.55;8.02;;;;;;;21.10;50.91;101700.59;4958096;28;20031;-81
2023/05/05 07:04:15;;;;;;;13.80;8.10;;;;;;;21.80;50.26;101695.75;4973317;28;20036;-81
2023/05/05 07:06:43;;;;;;;16.63;8.75;;;;;;;22.65;47.68;101696.59;4974687;28;20096;-79
2023/05/05 07:09:11;;;;;;;14.85;9.13;;;;;;;23.10;46.97;101698.22;4963476;28;20043;-80
2023/05/05 07:11:45;;;;;;;12.20;8.60;;;;;;;23.20;45.90;101697.03;4956296;28;20689;-79
2023/05/05 07:14:11;;;;;;;12.93;7.65;;;;;;;22.70;47.30;101690.28;4962666;28;20063;-80
2023/05/05 07:16:42;;;;;;;11.90;7.68;;;;;;;22.46;48.23;101694.38;4959875;28;20035;-79
2023/05/05 07:19:07;;;;;;;13.80;8.18;;;;;;;22.45;47.65;101687.31;4961226;28;20066;-79
2023/05/05 07:21:33;;;;;;;14.90;8.68;;;;;;;22.23;48.61;101690.47;4958956;28;20054;-81
2023/05/05 07:23:58;;;;;;;15.70;8.88;;;;;;;22.19;50.03;101695.88;4957527;28;20520;-80
2023/05/05 07:26:24;;;;;;;14.80;8.40;;;;;;;23.03;46.92;101697.47;4953125;28;20035;-81
2023/05/05 07:28:54;;;;;;;12.50;7.25;;;;;;;23.60;46.33;101697.78;4953669;28;20130;-80
2023/05/05 07:31:20;;;;;;;13.10;6.88;;;;;;;23.83;45.21;101697.13;4962467;28;20469;-80
2023/05/05 07:33:46;;;;;;;10.55;6.40;;;;;;;23.66;44.93;101689.63;4950762;28;20039;-80
2023/05/05 07:36:11;;;;;;;9.63;5.50;;;;;;;23.21;45.69;101698.81;4952573;28;20055;-81
2023/05/05 07:38:36;;;;;;;8.25;4.85;;;;;;;22.33;47.02;101696.44;4946631;28;20142;-80
2023/05/05 07:41:02;;;;;;;7.63;4.82;;;;;;;22.45;47.60;101698.81;4950450;28;20097;-80
2023/05/05 07:43:27;;;;;;;9.40;4.45;;;;;;;22.40;47.13;101710.47;4946878;28;20031;-80
2023/05/05 07:45:53;;;;;;;6.55;4.28;;;;;;;22.92;46.41;101716.38;4959620;28;20056;-79
2023/05/05 07:48:18;;;;;;;6.88;4.25;;;;;;;22.36;46.45;101719.41;4953499;28;20031;-79
2023/05/05 07:50:43;;;;;;;8.40;4.47;;;;;;;22.33;46.82;101730.09;4956527;28;20138;-83
2023/05/05 07:53:15;;;;;;;6.55;4.55;;;;;;;21.87;48.00;101731.03;4958838;28;20039;-81
2023/05/05 07:55:43;;;;;;;8.70;3.97;;;;;;;22.60;46.85;101717.09;4954562;28;20042;-80
2023/05/05 07:58:17;;;;;;;6.88;3.47;;;;;;;22.26;46.53;101721.41;4954531;28;20053;-81
2023/05/05 08:00:46;;;;;;;9.30;3.20;;;;;;;22.13;45.96;101719.91;4948146;28;20070;-82
2023/05/05 08:03:12;;;;;;;7.03;2.95;;;;;;;21.80;45.68;101719.66;4952783;28;20081;-80
2023/05/05 08:05:37;;;;;;;5.22;3.08;;;;;;;22.17;46.13;101718.94;4948247;28;20035;-81
2023/05/05 08:08:02;;;;;;;5.22;2.90;;;;;;;22.16;46.87;101730.47;4950349;28;20039;-82
2023/05/05 08:10:27;;;;;;;5.55;2.78;;;;;;;22.55;45.45;101724.31;4949379;28;20054;-80
2023/05/05 08:12:53;;;;;;;4.38;2.50;;;;;;;22.05;47.17;101729.81;4949887;28;20031;-79
2023/05/05 08:15:19;;;;;;;5.10;2.80;;;;;;;21.61;47.90;101738.59;4961179;28;20038;-83
2023/05/05 08:17:46;;;;;;;5.40;2.70;;;;;;;21.44;48.37;101737.13;4954267;28;20050;-79
2023/05/05 08:20:12;;;;;;;4.90;2.60;;;;;;;22.14;47.14;101743.75;4953057;28;20035;-82
2023/05/05 08:22:37;;;;;;;5.10;3.00;;;;;;;22.75;46.46;101734.47;4946382;28;20086;-82
2023/05/05 08:25:03;;;;;;;7.80;3.55;;;;;;;22.54;45.44;101732.31;4948600;28;20047;-81
2023/05/05 08:27:28;;;;;;;5.82;3.20;;;;;;;22.34;46.38;101737.16;4947869;28;20035;-81
2023/05/05 08:29:53;;;;;;;6.47;2.60;;;;;;;22.88;44.80;101746.59;4950669;28;20039;-80
2023/05/05 08:32:19;;;;;;;7.43;3.30;;;;;;;23.39;43.35;101748.88;4929947;28;20035;-80
2023/05/05 08:34:44;;;;;;;5.00;3.08;;;;;;;23.03;43.38;101745.34;4954718;28;20117;-79
2023/05/05 08:37:10;;;;;;;6.18;2.90;;;;;;;22.92;44.43;101750.06;4956446;28;20075;-78
2023/05/05 08:39:39;;;;;;;6.57;2.78;;;;;;;21.99;46.50;101756.50;4949919;28;20047;-79
2023/05/05 08:42:10;;;;;;;5.63;2.17;;;;;;;21.63;46.86;101747.41;4955639;28;20429;-80
2023/05/05 08:44:35;;;;;;;5.78;2.30;;;;;;;21.55;47.71;101744.91;4954053;28;20058;-79
2023/05/05 08:47:01;;;;;;;6.47;2.03;;;;;;;22.04;48.15;101751.97;4958527;28;20272;-81
2023/05/05 08:49:30;;;;;;;4.18;2.10;;;;;;;21.97;48.67;101748.53;4956252;28;20046;-79
2023/05/05 08:52:04;;;;;;;6.20;2.53;;;;;;;21.33;54.34;101754.16;4961367;28;20042;-80
2023/05/05 08:54:33;;;;;;;4.55;2.20;;;;;;;21.93;53.35;101748.63;4956232;28;20042;-79
2023/05/05 08:57:00;;;;;;;5.20;2.30;;;;;;;21.39;53.87;101746.09;4949943;28;20501;-79
2023/05/05 08:59:29;;;;;;;5.53;2.30;;;;;;;21.27;53.37;101757.78;4938450;28;20035;-79
2023/05/05 09:01:56;;;;;;;4.55;2.03;;;;;;;20.73;54.84;101756.84;4952451;28;20039;-79
2023/05/05 09:04:22;;;;;;;7.07;2.40;;;;;;;20.65;55.99;101759.59;4963127;28;20036;-78
2023/05/05 09:06:47;;;;;;;4.82;2.42;;;;;;;20.45;57.01;101758.09;4962635;28;20102;-79
2023/05/05 09:09:13;;;;;;;5.50;2.53;;;;;;;20.93;56.24;101760.03;4958779;28;20027;-82
2023/05/05 09:11:40;;;;;;;4.75;2.17;;;;;;;20.48;56.69;101763.38;4963346;28;20031;-78
2023/05/05 09:14:11;;;;;;;6.22;2.50;;;;;;;20.61;57.31;101768.44;4957895;28;20031;-79
2023/05/05 09:16:41;;;;;;;5.60;2.47;;;;;;;21.32;55.21;101766.53;4957705;28;20067;-79
2023/05/05 09:19:07;;;;;;;6.18;2.40;;;;;;;21.38;53.43;101773.50;4960175;28;20063;-79
2023/05/05 09:21:45;;;;;;;3.03;2.10;;;;;;;21.08;54.00;101764.25;4956888;28;20055;-79
2023/05/05 09:24:11;;;;;;;7.50;2.30;;;;;;;21.70;54.01;101770.28;4963557;28;20035;-78
2023/05/05 09:26:42;;;;;;;5.05;2.30;;;;;;;22.11;52.77;101775.72;4969990;28;20515;-78
2023/05/05 09:29:07;;;;;;;5.68;2.13;;;;;;;22.08;51.47;101770.44;4961210;28;20047;-80
2023/05/05 09:31:34;;;;;;;4.28;2.40;;;;;;;21.78;51.59;101771.88;4957995;28;20386;-78
2023/05/05 09:34:00;;;;;;;3.95;2.22;;;;;;;22.19;50.94;101775.56;4963539;28;20032;-80
2023/05/05 09:36:46;;;;;;;6.45;2.60;;;;;;;21.71;53.20;101780.00;4947625;28;20059;-81
2023/05/05 09:39:18;;;;;;;4.35;2.20;;;;;;;22.00;51.69;101780.38;4952944;28;20061;-81
2023/05/05 09:41:44;;;;;;;8.60;2.45;;;;;;;21.81;51.29;101777.16;4951919;28;20036;-79
2023/05/05 09:44:11;;;;;;;5.55;2.50;;;;;;;21.90;51.27;101784.06;4959260;28;20047;-80
2023/05/05 09:46:37;;;;;;;4.55;2.20;;;;;;;22.09;52.02;101776.63;4959580;28;20046;-80
2023/05/05 09:49:17;;;;;;;5.88;2.92;;;;;;;22.02;51.50;101780.31;4960324;28;20039;-80
2023/05/05 09:51:43;;;;;;;4.22;2.40;;;;;;;21.86;52.88;101780.59;4958609;28;20035;-81
2023/05/05 09:54:23;;;;;;;4.88;2.63;;;;;;;21.89;54.53;101777.03;4966224;28;20035;-79
2023/05/05 09:56:53;;;;;;;6.38;3.30;;;;;;;21.73;54.05;101775.53;4961935;28;20039;-80
2023/05/05 09:59:19;;;;;;;6.35;3.38;;;;;;;22.32;52.68;101774.41;4957841;28;20040;-81
2023/05/05 10:01:45;;;;;;;5.50;3.38;;;;;;;21.62;54.28;101770.44;4963079;28;20095;-80
2023/05/05 10:04:30;;;;;;;5.72;3.40;;;;;;;22.75;51.82;101768.19;4974908;28;20034;-78
2023/05/05 10:06:57;;;;;;;8.00;3.83;;;;;;;22.51;50.52;101765.13;4964702;28;20035;-79
2023/05/05 10:09:26;;;;;;;8.57;3.85;;;;;;;22.85;50.74;101759.09;4962970;28;20031;-78
2023/05/05 10:11:52;;;;;;;10.60;4.35;;;;;;;22.34;52.35;101755.75;4966198;28;20571;-81
2023/05/05 10:14:18;;;;;;;9.07;4.63;;;;;;;22.35;51.25;101754.88;4954002;28;20035;-80
2023/05/05 10:16:54;;;;;;;8.75;5.28;;;;;;;22.02;52.14;101759.94;4975484;28;20046;-81
2023/05/05 10:19:21;;;;;;;9.50;5.00;;;;;;;22.10;52.62;101762.47;4958616;28;20027;-78
2023/05/05 10:21:52;;;;;;;10.30;5.10;;;;;;;22.31;51.90;101762.03;4960649;28;20091;-81
2023/05/05 10:24:32;;;;;;;8.80;5.45;;;;;;;21.56;52.89;101759.03;4957432;28;20027;-81
2023/05/05 10:27:01;;;;;;;8.05;5.00;;;;;;;21.94;53.25;101764.53;4957899;28;20043;-80
2023/05/05 10:30:10;;;;;;;8.43;5.13;;;;;;;22.44;52.01;101758.22;4959225;28;20043;-80
2023/05/05 10:32:43;;;;;;;8.65;4.90;;;;;;;22.66;51.71;101758.59;4957398;28;20043;-79
2023/05/05 10:35:20;;;;;;;8.53;4.30;;;;;;;22.87;50.36;101749.31;4964953;28;20038;-80
2023/05/05 10:37:48;;;;;;;6.93;2.75;;;;;;;22.31;49.28;101754.06;4958045;28;20066;-79
2023/05/05 10:40:17;;;;;;;7.28;2.75;;;;;;;21.78;50.13;101760.38;4958721;28;20050;-80
2023/05/05 10:42:43;;;;;;;5.90;2.10;;;;;;;21.84;50.23;101762.94;4959763;28;20047;-80
2023/05/05 10:45:15;;;;;;;3.78;1.60;;;;;;;21.98;48.24;101758.28;4961749;28;20035;-80
2023/05/05 10:47:42;;;;;;;5.35;1.63;;;;;;;22.23;47.41;101756.00;4959707;28;20280;-79
2023/05/05 10:50:30;;;;;;;6.68;1.50;;;;;;;21.85;47.86;101759.38;4964294;28;20063;-82
2023/05/05 10:53:26;;;;;;;5.40;1.50;;;;;;;21.96;48.89;101757.41;4975660;28;20102;-78
2023/05/05 10:56:25;;;;;;;4.53;1.50;;;;;;;21.54;49.99;101756.41;4960936;28;20293;-79
2023/05/05 10:58:53;;;;;;;6.43;1.98;;;;;;;22.07;48.94;101762.53;4955258;28;20066;-79
2023/05/05 11:01:38;;;;;;;5.35;2.10;;;;;;;22.05;51.53;101764.34;4952205;28;20031;-78
2023/05/05 11:04:22;;;;;;;;;;;;;;;22.53;50.72;101757.13;4961422;28;20045;-79
2023/05/05 11:07:09;;;;;;;6.95;4.25;;;;;;;22.50;53.00;101746.56;4961674;28;19914;-80
2023/05/05 11:10:00;;;;;;;12.35;6.30;;;;;;;22.61;53.77;101742.75;4956563;28;20063;-79
2023/05/05 11:12:26;;;;;;;10.65;6.22;;;;;;;22.34;54.47;101742.47;4958703;28;20031;-79
2023/05/05 11:15:22;;;;;;;12.07;6.53;;;;;;;22.14;55.86;101740.28;4976340;28;20050;-79
2023/05/05 11:17:48;;;;;;;10.40;6.22;;;;;;;22.29;54.81;101737.28;4976445;28;20071;-79
2023/05/05 11:20:13;;;;;;;12.90;6.20;;;;;;;22.00;55.75;101740.53;4956371;28;20286;-81
2023/05/05 11:23:03;;;;;;;11.57;6.18;;;;;;;22.12;56.07;101726.13;4961100;28;20125;-79
2023/05/05 11:25:51;;;;;;;9.68;5.78;;;;;;;22.11;55.41;101733.22;4954583;28;20049;-78
2023/05/05 11:28:20;;;;;;;12.85;6.25;;;;;;;22.10;55.25;101733.25;4953635;28;20032;-83
2023/05/05 11:30:54;;;;;;;9.05;5.70;;;;;;;22.29;54.74;101737.28;4955123;28;20054;-81